sensor_id;sensor_type;location;lat;lon;timestamp;temperature;humidity
7167;DHT22;3625;51.762;14.320;2022-07-23T00:04:02;18.10;99.90
7167;DHT22;3625;51.762;14.320;2022-07-23T00:06:30;17.90;99.90
7167;DHT22;3625;51.762;14.320;2022-07-23T00:08:59;17.90;99.90
7167;DHT22;3625;51.762;14.320;2022-07-23T00:11:29;17.90;99.90
7167;DHT22;3625;51.762;14.320;2022-07-23T00:16:28;17.80;99.90
7167;DHT22;3625;51.762;14.320;2022-07-23T00:18:57;17.80;99.90
7167;DHT22;3625;51.762;14.320;2022-07-23T00:21:29;17.80;99.90
7167;DHT22;3625;51.762;14.320;2022-07-23T00:23:58;17.80;99.90
7167;DHT22;3625;51.762;14.320;2022-07-23T00:28:55;17.80;99.90
7167;DHT22;3625;51.762;14.320;2022-07-23T00:33:56;17.80;99.90
7167;DHT22;3625;51.762;14.320;2022-07-23T00:38:53;17.80;99.90
7167;DHT22;3625;51.762;14.320;2022-07-23T00:41:24;17.70;99.90
7167;DHT22;3625;51.762;14.320;2022-07-23T00:43:52;17.70;99.90
7167;DHT22;3625;51.762;14.320;2022-07-23T00:46:22;17.70;99.90
7167;DHT22;3625;51.762;14.320;2022-07-23T00:48:52;17.60;99.90
7167;DHT22;3625;51.762;14.320;2022-07-23T00:51:22;17.60;99.90
7167;DHT22;3625;51.762;14.320;2022-07-23T00:58:50;17.40;99.90
7167;DHT22;3625;51.762;14.320;2022-07-23T01:06:18;17.30;99.90
7167;DHT22;3625;51.762;14.320;2022-07-23T01:08:48;17.30;99.90
7167;DHT22;3625;51.762;14.320;2022-07-23T01:11:18;17.20;99.90
7167;DHT22;3625;51.762;14.320;2022-07-23T01:13:48;17.20;99.90
7167;DHT22;3625;51.762;14.320;2022-07-23T01:16:16;17.10;99.90
7167;DHT22;3625;51.762;14.320;2022-07-23T01:21:18;17.10;99.90
7167;DHT22;3625;51.762;14.320;2022-07-23T01:23:49;17.00;99.90
7167;DHT22;3625;51.762;14.320;2022-07-23T01:36:16;17.20;99.90
7167;DHT22;3625;51.762;14.320;2022-07-23T01:41:16;17.20;99.90
7167;DHT22;3625;51.762;14.320;2022-07-23T01:46:15;17.20;99.90
7167;DHT22;3625;51.762;14.320;2022-07-23T01:48:47;17.20;99.90
7167;DHT22;3625;51.762;14.320;2022-07-23T01:54:37;17.10;99.90
7167;DHT22;3625;51.762;14.320;2022-07-23T01:57:11;17.10;99.90
7167;DHT22;3625;51.762;14.320;2022-07-23T01:59:39;17.10;99.90
7167;DHT22;3625;51.762;14.320;2022-07-23T02:02:09;17.10;99.90
7167;DHT22;3625;51.762;14.320;2022-07-23T02:07:07;17.20;99.90
7167;DHT22;3625;51.762;14.320;2022-07-23T02:09:36;17.20;99.90
7167;DHT22;3625;51.762;14.320;2022-07-23T02:12:05;17.20;99.90
7167;DHT22;3625;51.762;14.320;2022-07-23T02:14:35;17.20;99.90
7167;DHT22;3625;51.762;14.320;2022-07-23T02:24:33;17.30;99.90
7167;DHT22;3625;51.762;14.320;2022-07-23T02:32:02;17.30;99.90
7167;DHT22;3625;51.762;14.320;2022-07-23T02:37:03;17.40;99.90
7167;DHT22;3625;51.762;14.320;2022-07-23T02:47:03;17.40;99.90
7167;DHT22;3625;51.762;14.320;2022-07-23T02:49:33;17.40;99.90
7167;DHT22;3625;51.762;14.320;2022-07-23T02:52:05;17.40;99.90
7167;DHT22;3625;51.762;14.320;2022-07-23T02:57:03;17.30;99.90
7167;DHT22;3625;51.762;14.320;2022-07-23T02:59:32;17.30;99.90
7167;DHT22;3625;51.762;14.320;2022-07-23T03:02:02;17.40;99.90
7167;DHT22;3625;51.762;14.320;2022-07-23T03:04:31;17.40;99.90
7167;DHT22;3625;51.762;14.320;2022-07-23T03:11:58;17.70;99.90
7167;DHT22;3625;51.762;14.320;2022-07-23T03:14:27;17.80;99.90
7167;DHT22;3625;51.762;14.320;2022-07-23T03:19:28;17.90;99.90
7167;DHT22;3625;51.762;14.320;2022-07-23T03:24:26;18.00;99.90
7167;DHT22;3625;51.762;14.320;2022-07-23T03:27:16;18.00;99.90
7167;DHT22;3625;51.762;14.320;2022-07-23T03:34:44;18.10;99.90
7167;DHT22;3625;51.762;14.320;2022-07-23T03:37:13;18.20;99.90
7167;DHT22;3625;51.762;14.320;2022-07-23T03:39:43;18.20;99.90
7167;DHT22;3625;51.762;14.320;2022-07-23T03:42:12;18.30;99.90
7167;DHT22;3625;51.762;14.320;2022-07-23T03:44:41;18.30;99.90
7167;DHT22;3625;51.762;14.320;2022-07-23T03:47:09;18.30;99.90
7167;DHT22;3625;51.762;14.320;2022-07-23T03:52:09;18.40;99.90
7167;DHT22;3625;51.762;14.320;2022-07-23T03:57:07;18.50;99.90
7167;DHT22;3625;51.762;14.320;2022-07-23T03:59:36;18.50;99.90
7167;DHT22;3625;51.762;14.320;2022-07-23T04:04:33;18.80;99.90
7167;DHT22;3625;51.762;14.320;2022-07-23T04:07:02;18.90;99.90
7167;DHT22;3625;51.762;14.320;2022-07-23T04:09:33;19.00;99.90
7167;DHT22;3625;51.762;14.320;2022-07-23T04:12:02;19.10;99.90
7167;DHT22;3625;51.762;14.320;2022-07-23T04:14:31;19.20;99.90
7167;DHT22;3625;51.762;14.320;2022-07-23T04:17:01;19.20;99.90
7167;DHT22;3625;51.762;14.320;2022-07-23T04:22:04;18.90;99.90
7167;DHT22;3625;51.762;14.320;2022-07-23T04:24:37;18.80;99.90
7167;DHT22;3625;51.762;14.320;2022-07-23T04:27:07;18.70;99.90
7167;DHT22;3625;51.762;14.320;2022-07-23T04:34:35;18.70;99.90
7167;DHT22;3625;51.762;14.320;2022-07-23T04:37:05;18.80;99.90
7167;DHT22;3625;51.762;14.320;2022-07-23T04:39:36;18.70;99.90
7167;DHT22;3625;51.762;14.320;2022-07-23T04:47:05;18.50;99.90
7167;DHT22;3625;51.762;14.320;2022-07-23T04:49:35;18.30;99.90
7167;DHT22;3625;51.762;14.320;2022-07-23T04:54:36;18.00;99.90
7167;DHT22;3625;51.762;14.320;2022-07-23T04:57:05;17.90;99.90
7167;DHT22;3625;51.762;14.320;2022-07-23T05:04:33;18.20;99.90
7167;DHT22;3625;51.762;14.320;2022-07-23T05:09:32;18.40;99.90
7167;DHT22;3625;51.762;14.320;2022-07-23T05:12:03;18.40;99.90
7167;DHT22;3625;51.762;14.320;2022-07-23T05:14:34;18.50;99.90
7167;DHT22;3625;51.762;14.320;2022-07-23T05:17:03;18.70;99.90
7167;DHT22;3625;51.762;14.320;2022-07-23T05:27:03;18.60;99.90
7167;DHT22;3625;51.762;14.320;2022-07-23T05:29:31;18.70;99.90
7167;DHT22;3625;51.762;14.320;2022-07-23T05:32:00;18.60;99.90
7167;DHT22;3625;51.762;14.320;2022-07-23T05:39:29;18.40;99.90
7167;DHT22;3625;51.762;14.320;2022-07-23T05:44:29;18.30;99.90
7167;DHT22;3625;51.762;14.320;2022-07-23T05:49:30;18.20;99.90
7167;DHT22;3625;51.762;14.320;2022-07-23T05:55:26;18.50;99.90
7167;DHT22;3625;51.762;14.320;2022-07-23T05:57:56;17.90;99.90
7167;DHT22;3625;51.762;14.320;2022-07-23T06:00:28;18.50;99.90
7167;DHT22;3625;51.762;14.320;2022-07-23T06:05:29;18.80;99.90
7167;DHT22;3625;51.762;14.320;2022-07-23T06:07:58;18.90;99.90
7167;DHT22;3625;51.762;14.320;2022-07-23T06:10:28;18.80;99.90
7167;DHT22;3625;51.762;14.320;2022-07-23T06:12:57;18.90;99.90
7167;DHT22;3625;51.762;14.320;2022-07-23T06:15:30;19.00;99.90
7167;DHT22;3625;51.762;14.320;2022-07-23T06:17:59;19.00;99.90
7167;DHT22;3625;51.762;14.320;2022-07-23T06:22:58;18.70;99.90
7167;DHT22;3625;51.762;14.320;2022-07-23T06:32:57;18.60;99.90
7167;DHT22;3625;51.762;14.320;2022-07-23T06:35:26;18.60;99.90
7167;DHT22;3625;51.762;14.320;2022-07-23T06:40:24;18.60;99.90
7167;DHT22;3625;51.762;14.320;2022-07-23T06:47:52;18.40;99.90
7167;DHT22;3625;51.762;14.320;2022-07-23T06:50:22;18.50;99.90
7167;DHT22;3625;51.762;14.320;2022-07-23T06:52:51;18.60;99.90
7167;DHT22;3625;51.762;14.320;2022-07-23T06:57:49;18.60;99.90
7167;DHT22;3625;51.762;14.320;2022-07-23T07:00:18;18.50;99.90
7167;DHT22;3625;51.762;14.320;2022-07-23T07:02:47;18.20;99.90
7167;DHT22;3625;51.762;14.320;2022-07-23T07:07:47;18.90;99.90
7167;DHT22;3625;51.762;14.320;2022-07-23T07:10:17;18.90;99.90
7167;DHT22;3625;51.762;14.320;2022-07-23T07:15:15;19.70;99.90
7167;DHT22;3625;51.762;14.320;2022-07-23T07:25:14;19.70;99.90
7167;DHT22;3625;51.762;14.320;2022-07-23T07:30:12;19.50;99.90
7167;DHT22;3625;51.762;14.320;2022-07-23T07:32:41;19.80;99.90
7167;DHT22;3625;51.762;14.320;2022-07-23T07:40:25;20.80;1.00
7167;DHT22;3625;51.762;14.320;2022-07-23T07:43:00;20.70;1.00
7167;DHT22;3625;51.762;14.320;2022-07-23T07:45:30;20.50;1.00
7167;DHT22;3625;51.762;14.320;2022-07-23T07:50:28;20.40;1.00
7167;DHT22;3625;51.762;14.320;2022-07-23T07:52:57;20.90;99.90
7167;DHT22;3625;51.762;14.320;2022-07-23T07:55:29;21.00;1.00
7167;DHT22;3625;51.762;14.320;2022-07-23T07:57:59;21.10;1.00
7167;DHT22;3625;51.762;14.320;2022-07-23T08:00:28;21.40;1.00
7167;DHT22;3625;51.762;14.320;2022-07-23T08:02:59;21.40;1.00
7167;DHT22;3625;51.762;14.320;2022-07-23T08:05:30;21.00;99.90
7167;DHT22;3625;51.762;14.320;2022-07-23T08:07:59;20.90;1.00
7167;DHT22;3625;51.762;14.320;2022-07-23T08:10:29;21.40;99.90
7167;DHT22;3625;51.762;14.320;2022-07-23T08:12:59;21.50;1.00
7167;DHT22;3625;51.762;14.320;2022-07-23T08:15:30;21.80;1.00
7167;DHT22;3625;51.762;14.320;2022-07-23T08:17:59;21.80;1.00
7167;DHT22;3625;51.762;14.320;2022-07-23T08:22:59;22.20;1.00
7167;DHT22;3625;51.762;14.320;2022-07-23T08:25:33;22.60;1.00
7167;DHT22;3625;51.762;14.320;2022-07-23T08:28:04;23.10;99.90
7167;DHT22;3625;51.762;14.320;2022-07-23T08:30:36;23.30;99.90
7167;DHT22;3625;51.762;14.320;2022-07-23T08:33:08;23.70;99.90
7167;DHT22;3625;51.762;14.320;2022-07-23T08:38:31;24.40;1.00
7167;DHT22;3625;51.762;14.320;2022-07-23T08:41:02;24.40;1.00
7167;DHT22;3625;51.762;14.320;2022-07-23T08:43:33;24.00;99.90
7167;DHT22;3625;51.762;14.320;2022-07-23T08:46:04;24.40;1.00
7167;DHT22;3625;51.762;14.320;2022-07-23T08:48:34;24.50;1.00
7167;DHT22;3625;51.762;14.320;2022-07-23T08:51:07;24.50;1.00
7167;DHT22;3625;51.762;14.320;2022-07-23T08:53:37;24.50;1.00
7167;DHT22;3625;51.762;14.320;2022-07-23T08:56:09;24.90;1.00
7167;DHT22;3625;51.762;14.320;2022-07-23T09:03:37;23.90;99.90
7167;DHT22;3625;51.762;14.320;2022-07-23T09:06:07;23.90;99.90
7167;DHT22;3625;51.762;14.320;2022-07-23T09:08:37;23.90;1.00
7167;DHT22;3625;51.762;14.320;2022-07-23T09:11:09;22.30;1.00
7167;DHT22;3625;51.762;14.320;2022-07-23T09:13:41;23.30;1.00
7167;DHT22;3625;51.762;14.320;2022-07-23T09:16:12;23.20;99.90
7167;DHT22;3625;51.762;14.320;2022-07-23T09:18:46;23.40;1.00
7167;DHT22;3625;51.762;14.320;2022-07-23T09:21:21;23.60;1.00
7167;DHT22;3625;51.762;14.320;2022-07-23T09:23:55;23.40;1.00
7167;DHT22;3625;51.762;14.320;2022-07-23T09:26:33;23.10;99.90
7167;DHT22;3625;51.762;14.320;2022-07-23T09:29:16;23.40;99.90
7167;DHT22;3625;51.762;14.320;2022-07-23T09:31:48;23.70;1.00
7167;DHT22;3625;51.762;14.320;2022-07-23T09:34:20;23.70;1.00
7167;DHT22;3625;51.762;14.320;2022-07-23T09:36:51;23.80;99.90
7167;DHT22;3625;51.762;14.320;2022-07-23T09:39:26;23.60;99.90
7167;DHT22;3625;51.762;14.320;2022-07-23T09:41:58;23.80;99.90
7167;DHT22;3625;51.762;14.320;2022-07-23T09:44:42;24.30;99.90
7167;DHT22;3625;51.762;14.320;2022-07-23T09:47:12;24.80;1.00
7167;DHT22;3625;51.762;14.320;2022-07-23T09:49:57;25.10;1.00
7167;DHT22;3625;51.762;14.320;2022-07-23T09:55:04;24.40;31.20
7167;DHT22;3625;51.762;14.320;2022-07-23T09:57:35;24.80;1.00
7167;DHT22;3625;51.762;14.320;2022-07-23T10:00:08;24.90;1.00
7167;DHT22;3625;51.762;14.320;2022-07-23T10:02:39;25.50;1.00
7167;DHT22;3625;51.762;14.320;2022-07-23T10:05:29;24.80;1.00
7167;DHT22;3625;51.762;14.320;2022-07-23T10:08:18;24.50;99.90
7167;DHT22;3625;51.762;14.320;2022-07-23T10:11:09;24.50;99.90
7167;DHT22;3625;51.762;14.320;2022-07-23T10:13:44;24.70;99.90
7167;DHT22;3625;51.762;14.320;2022-07-23T10:16:22;24.70;99.90
7167;DHT22;3625;51.762;14.320;2022-07-23T10:21:27;25.30;99.90
7167;DHT22;3625;51.762;14.320;2022-07-23T10:24:12;25.10;1.00
7167;DHT22;3625;51.762;14.320;2022-07-23T10:26:58;25.10;99.90
7167;DHT22;3625;51.762;14.320;2022-07-23T10:29:43;24.70;1.00
7167;DHT22;3625;51.762;14.320;2022-07-23T10:32:26;25.10;99.90
7167;DHT22;3625;51.762;14.320;2022-07-23T10:35:13;25.40;99.90
7167;DHT22;3625;51.762;14.320;2022-07-23T10:37:56;24.70;1.00
7167;DHT22;3625;51.762;14.320;2022-07-23T10:43:13;24.10;1.00
7167;DHT22;3625;51.762;14.320;2022-07-23T10:45:49;24.80;1.00
7167;DHT22;3625;51.762;14.320;2022-07-23T10:48:20;24.70;99.90
7167;DHT22;3625;51.762;14.320;2022-07-23T10:51:06;24.40;99.90
7167;DHT22;3625;51.762;14.320;2022-07-23T10:53:57;24.10;1.00
7167;DHT22;3625;51.762;14.320;2022-07-23T10:56:50;24.30;1.00
7167;DHT22;3625;51.762;14.320;2022-07-23T11:00:12;24.30;18.20
7167;DHT22;3625;51.762;14.320;2022-07-23T11:02:47;24.10;1.00
7167;DHT22;3625;51.762;14.320;2022-07-23T11:05:18;24.40;99.90
7167;DHT22;3625;51.762;14.320;2022-07-23T11:08:15;24.20;1.00
7167;DHT22;3625;51.762;14.320;2022-07-23T11:10:52;24.20;1.00
7167;DHT22;3625;51.762;14.320;2022-07-23T11:13:51;24.60;1.00
7167;DHT22;3625;51.762;14.320;2022-07-23T11:16:22;24.80;1.00
7167;DHT22;3625;51.762;14.320;2022-07-23T11:18:59;24.30;99.90
7167;DHT22;3625;51.762;14.320;2022-07-23T11:21:45;24.10;1.00
7167;DHT22;3625;51.762;14.320;2022-07-23T11:24:21;24.30;1.00
7167;DHT22;3625;51.762;14.320;2022-07-23T11:27:03;24.50;90.80
7167;DHT22;3625;51.762;14.320;2022-07-23T11:29:46;25.10;99.90
7167;DHT22;3625;51.762;14.320;2022-07-23T11:32:25;24.80;99.90
7167;DHT22;3625;51.762;14.320;2022-07-23T11:34:59;24.80;99.90
7167;DHT22;3625;51.762;14.320;2022-07-23T11:37:35;24.80;1.00
7167;DHT22;3625;51.762;14.320;2022-07-23T11:40:10;25.30;1.00
7167;DHT22;3625;51.762;14.320;2022-07-23T11:42:51;25.20;1.00
7167;DHT22;3625;51.762;14.320;2022-07-23T11:45:28;25.00;99.90
7167;DHT22;3625;51.762;14.320;2022-07-23T11:47:59;24.80;28.60
7167;DHT22;3625;51.762;14.320;2022-07-23T11:50:30;25.30;99.90
7167;DHT22;3625;51.762;14.320;2022-07-23T11:52:59;24.80;1.00
7167;DHT22;3625;51.762;14.320;2022-07-23T11:55:28;24.50;99.90
7167;DHT22;3625;51.762;14.320;2022-07-23T12:00:28;23.80;1.00
7167;DHT22;3625;51.762;14.320;2022-07-23T12:05:38;23.90;1.00
7167;DHT22;3625;51.762;14.320;2022-07-23T12:08:09;24.30;99.90
7167;DHT22;3625;51.762;14.320;2022-07-23T12:10:41;24.40;1.00
7167;DHT22;3625;51.762;14.320;2022-07-23T12:13:13;24.50;1.00
7167;DHT22;3625;51.762;14.320;2022-07-23T12:15:44;24.80;99.90
7167;DHT22;3625;51.762;14.320;2022-07-23T12:18:16;24.40;98.90
7167;DHT22;3625;51.762;14.320;2022-07-23T12:20:54;24.80;1.00
7167;DHT22;3625;51.762;14.320;2022-07-23T12:23:25;25.50;99.90
7167;DHT22;3625;51.762;14.320;2022-07-23T12:25:54;25.90;1.00
7167;DHT22;3625;51.762;14.320;2022-07-23T12:28:30;25.50;99.90
7167;DHT22;3625;51.762;14.320;2022-07-23T12:31:01;25.20;1.00
7167;DHT22;3625;51.762;14.320;2022-07-23T12:33:31;25.10;1.00
7167;DHT22;3625;51.762;14.320;2022-07-23T12:36:04;25.20;1.00
7167;DHT22;3625;51.762;14.320;2022-07-23T12:38:39;24.70;99.90
7167;DHT22;3625;51.762;14.320;2022-07-23T12:41:09;24.50;1.00
7167;DHT22;3625;51.762;14.320;2022-07-23T12:43:40;24.10;1.00
7167;DHT22;3625;51.762;14.320;2022-07-23T12:46:13;23.80;8.10
7167;DHT22;3625;51.762;14.320;2022-07-23T12:48:51;23.60;99.90
7167;DHT22;3625;51.762;14.320;2022-07-23T12:51:24;23.60;1.00
7167;DHT22;3625;51.762;14.320;2022-07-23T12:53:56;23.30;1.00
7167;DHT22;3625;51.762;14.320;2022-07-23T12:56:30;23.40;1.00
7167;DHT22;3625;51.762;14.320;2022-07-23T12:59:06;23.50;1.00
7167;DHT22;3625;51.762;14.320;2022-07-23T13:01:39;23.40;1.00
7167;DHT22;3625;51.762;14.320;2022-07-23T13:04:13;23.80;99.90
7167;DHT22;3625;51.762;14.320;2022-07-23T13:06:46;24.10;1.00
7167;DHT22;3625;51.762;14.320;2022-07-23T13:09:17;24.50;1.00
7167;DHT22;3625;51.762;14.320;2022-07-23T13:11:49;24.20;1.00
7167;DHT22;3625;51.762;14.320;2022-07-23T13:14:19;24.20;1.00
7167;DHT22;3625;51.762;14.320;2022-07-23T13:16:49;24.00;99.90
7167;DHT22;3625;51.762;14.320;2022-07-23T13:19:20;24.20;1.00
7167;DHT22;3625;51.762;14.320;2022-07-23T13:21:53;24.60;99.90
7167;DHT22;3625;51.762;14.320;2022-07-23T13:34:18;26.10;1.00
7167;DHT22;3625;51.762;14.320;2022-07-23T13:36:47;26.00;1.00
7167;DHT22;3625;51.762;14.320;2022-07-23T13:39:17;25.70;1.00
7167;DHT22;3625;51.762;14.320;2022-07-23T13:41:46;25.20;16.20
7167;DHT22;3625;51.762;14.320;2022-07-23T13:44:17;25.30;1.00
7167;DHT22;3625;51.762;14.320;2022-07-23T13:46:49;24.90;79.40
7167;DHT22;3625;51.762;14.320;2022-07-23T13:54:18;24.30;99.90
7167;DHT22;3625;51.762;14.320;2022-07-23T13:56:48;24.50;1.00
7167;DHT22;3625;51.762;14.320;2022-07-23T13:59:20;25.20;99.90
7167;DHT22;3625;51.762;14.320;2022-07-23T14:01:52;25.70;1.00
7167;DHT22;3625;51.762;14.320;2022-07-23T14:04:41;25.70;99.90
7167;DHT22;3625;51.762;14.320;2022-07-23T14:07:10;25.50;99.90
7167;DHT22;3625;51.762;14.320;2022-07-23T14:09:41;24.80;99.90
7167;DHT22;3625;51.762;14.320;2022-07-23T14:12:09;24.40;99.90
7167;DHT22;3625;51.762;14.320;2022-07-23T14:24:35;23.60;99.90
7167;DHT22;3625;51.762;14.320;2022-07-23T14:27:05;23.50;99.90
7167;DHT22;3625;51.762;14.320;2022-07-23T14:29:35;23.40;99.90
7167;DHT22;3625;51.762;14.320;2022-07-23T14:32:04;23.50;99.90
7167;DHT22;3625;51.762;14.320;2022-07-23T14:34:33;23.30;99.90
7167;DHT22;3625;51.762;14.320;2022-07-23T14:37:04;23.30;99.90
7167;DHT22;3625;51.762;14.320;2022-07-23T14:42:05;23.30;99.90
7167;DHT22;3625;51.762;14.320;2022-07-23T14:44:34;23.40;99.90
7167;DHT22;3625;51.762;14.320;2022-07-23T14:47:05;23.60;99.90
7167;DHT22;3625;51.762;14.320;2022-07-23T14:52:05;23.30;99.90
7167;DHT22;3625;51.762;14.320;2022-07-23T14:54:34;23.40;99.90
7167;DHT22;3625;51.762;14.320;2022-07-23T14:57:05;23.40;99.90
7167;DHT22;3625;51.762;14.320;2022-07-23T14:59:37;23.30;99.90
7167;DHT22;3625;51.762;14.320;2022-07-23T15:07:05;23.40;99.90
7167;DHT22;3625;51.762;14.320;2022-07-23T15:12:06;23.60;99.90
7167;DHT22;3625;51.762;14.320;2022-07-23T15:17:08;24.00;99.90
7167;DHT22;3625;51.762;14.320;2022-07-23T15:19:41;24.00;99.90
7167;DHT22;3625;51.762;14.320;2022-07-23T15:22:11;23.80;99.90
7167;DHT22;3625;51.762;14.320;2022-07-23T15:27:12;24.00;99.90
7167;DHT22;3625;51.762;14.320;2022-07-23T15:29:41;24.20;99.90
7167;DHT22;3625;51.762;14.320;2022-07-23T15:34:39;24.00;99.90
7167;DHT22;3625;51.762;14.320;2022-07-23T15:39:40;24.10;99.90
7167;DHT22;3625;51.762;14.320;2022-07-23T15:44:42;24.30;99.90
7167;DHT22;3625;51.762;14.320;2022-07-23T15:47:14;24.30;99.90
7167;DHT22;3625;51.762;14.320;2022-07-23T15:49:45;24.40;99.90
7167;DHT22;3625;51.762;14.320;2022-07-23T15:52:13;24.50;99.90
7167;DHT22;3625;51.762;14.320;2022-07-23T15:57:17;24.50;99.90
7167;DHT22;3625;51.762;14.320;2022-07-23T15:59:50;24.30;99.90
7167;DHT22;3625;51.762;14.320;2022-07-23T16:02:20;24.30;99.90
7167;DHT22;3625;51.762;14.320;2022-07-23T16:07:22;24.70;99.90
7167;DHT22;3625;51.762;14.320;2022-07-23T16:14:51;24.40;99.90
7167;DHT22;3625;51.762;14.320;2022-07-23T16:19:50;24.70;99.90
7167;DHT22;3625;51.762;14.320;2022-07-23T16:24:48;24.40;99.90
7167;DHT22;3625;51.762;14.320;2022-07-23T16:27:17;24.50;99.90
7167;DHT22;3625;51.762;14.320;2022-07-23T16:29:46;24.70;99.90
7167;DHT22;3625;51.762;14.320;2022-07-23T16:32:16;24.70;99.90
7167;DHT22;3625;51.762;14.320;2022-07-23T16:39:43;25.10;99.90
7167;DHT22;3625;51.762;14.320;2022-07-23T16:42:13;25.20;99.90
7167;DHT22;3625;51.762;14.320;2022-07-23T16:44:42;25.30;99.90
7167;DHT22;3625;51.762;14.320;2022-07-23T16:47:11;25.50;99.90
7167;DHT22;3625;51.762;14.320;2022-07-23T16:49:41;25.70;99.90
7167;DHT22;3625;51.762;14.320;2022-07-23T16:52:09;25.90;99.90
7167;DHT22;3625;51.762;14.320;2022-07-23T16:57:07;25.80;99.90
7167;DHT22;3625;51.762;14.320;2022-07-23T16:59:36;25.80;99.90
7167;DHT22;3625;51.762;14.320;2022-07-23T17:04:34;26.10;99.90
7167;DHT22;3625;51.762;14.320;2022-07-23T17:07:04;25.90;99.90
7167;DHT22;3625;51.762;14.320;2022-07-23T17:09:34;25.70;99.90
7167;DHT22;3625;51.762;14.320;2022-07-23T17:12:04;25.70;99.90
7167;DHT22;3625;51.762;14.320;2022-07-23T17:14:33;26.00;99.90
7167;DHT22;3625;51.762;14.320;2022-07-23T17:17:02;26.30;99.90
7167;DHT22;3625;51.762;14.320;2022-07-23T17:19:32;26.50;99.90
7167;DHT22;3625;51.762;14.320;2022-07-23T17:24:31;26.50;99.90
7167;DHT22;3625;51.762;14.320;2022-07-23T17:27:01;26.40;99.90
7167;DHT22;3625;51.762;14.320;2022-07-23T17:29:32;26.30;99.90
7167;DHT22;3625;51.762;14.320;2022-07-23T17:32:01;26.20;99.90
7167;DHT22;3625;51.762;14.320;2022-07-23T17:34:31;25.90;99.90
7167;DHT22;3625;51.762;14.320;2022-07-23T17:36:59;25.70;99.90
7167;DHT22;3625;51.762;14.320;2022-07-23T17:39:28;25.30;99.90
7167;DHT22;3625;51.762;14.320;2022-07-23T17:41:58;25.10;99.90
7167;DHT22;3625;51.762;14.320;2022-07-23T17:44:27;24.90;99.90
7167;DHT22;3625;51.762;14.320;2022-07-23T17:46:56;24.90;99.90
7167;DHT22;3625;51.762;14.320;2022-07-23T17:49:25;25.00;99.90
7167;DHT22;3625;51.762;14.320;2022-07-23T17:51:54;25.00;99.90
7167;DHT22;3625;51.762;14.320;2022-07-23T17:54:23;25.10;99.90
7167;DHT22;3625;51.762;14.320;2022-07-23T17:59:24;25.20;99.90
7167;DHT22;3625;51.762;14.320;2022-07-23T18:01:53;25.10;99.90
7167;DHT22;3625;51.762;14.320;2022-07-23T18:04:22;25.00;99.90
7167;DHT22;3625;51.762;14.320;2022-07-23T18:09:20;24.80;99.90
7167;DHT22;3625;51.762;14.320;2022-07-23T18:11:49;25.20;99.90
7167;DHT22;3625;51.762;14.320;2022-07-23T18:14:18;24.70;99.90
7167;DHT22;3625;51.762;14.320;2022-07-23T18:16:48;24.60;99.90
7167;DHT22;3625;51.762;14.320;2022-07-23T18:26:45;24.00;99.90
7167;DHT22;3625;51.762;14.320;2022-07-23T18:31:43;23.80;99.90
7167;DHT22;3625;51.762;14.320;2022-07-23T18:34:13;23.70;99.90
7167;DHT22;3625;51.762;14.320;2022-07-23T18:39:13;23.40;99.90
7167;DHT22;3625;51.762;14.320;2022-07-23T18:49:12;22.90;99.90
7167;DHT22;3625;51.762;14.320;2022-07-23T18:51:42;22.70;99.90
7167;DHT22;3625;51.762;14.320;2022-07-23T18:54:10;22.50;99.90
7167;DHT22;3625;51.762;14.320;2022-07-23T18:56:41;22.30;99.90
7167;DHT22;3625;51.762;14.320;2022-07-23T19:01:49;22.10;99.90
7167;DHT22;3625;51.762;14.320;2022-07-23T19:04:20;22.00;99.90
7167;DHT22;3625;51.762;14.320;2022-07-23T19:06:49;21.90;99.90
7167;DHT22;3625;51.762;14.320;2022-07-23T19:11:47;21.80;99.90
7167;DHT22;3625;51.762;14.320;2022-07-23T19:14:16;21.60;99.90
7167;DHT22;3625;51.762;14.320;2022-07-23T19:19:15;21.30;99.90
7167;DHT22;3625;51.762;14.320;2022-07-23T19:21:45;21.10;99.90
7167;DHT22;3625;51.762;14.320;2022-07-23T19:24:14;22.10;99.90
7167;DHT22;3625;51.762;14.320;2022-07-23T19:26:43;20.80;99.90
7167;DHT22;3625;51.762;14.320;2022-07-23T19:31:40;20.50;99.90
7167;DHT22;3625;51.762;14.320;2022-07-23T19:34:09;20.50;99.90
7167;DHT22;3625;51.762;14.320;2022-07-23T19:39:09;20.30;99.90
7167;DHT22;3625;51.762;14.320;2022-07-23T19:54:04;19.70;99.90
7167;DHT22;3625;51.762;14.320;2022-07-23T19:56:34;19.70;99.90
7167;DHT22;3625;51.762;14.320;2022-07-23T19:59:03;19.60;99.90
7167;DHT22;3625;51.762;14.320;2022-07-23T20:01:32;19.50;99.90
7167;DHT22;3625;51.762;14.320;2022-07-23T20:04:03;19.50;99.90
7167;DHT22;3625;51.762;14.320;2022-07-23T20:06:32;19.40;99.90
7167;DHT22;3625;51.762;14.320;2022-07-23T20:09:02;19.30;99.90
7167;DHT22;3625;51.762;14.320;2022-07-23T20:11:33;19.10;99.90
7167;DHT22;3625;51.762;14.320;2022-07-23T20:14:03;19.10;99.90
7167;DHT22;3625;51.762;14.320;2022-07-23T20:16:37;19.10;99.90
7167;DHT22;3625;51.762;14.320;2022-07-23T20:19:06;19.10;99.90
7167;DHT22;3625;51.762;14.320;2022-07-23T20:21:35;19.00;99.90
7167;DHT22;3625;51.762;14.320;2022-07-23T20:26:46;18.90;99.90
7167;DHT22;3625;51.762;14.320;2022-07-23T20:29:16;18.80;99.90
7167;DHT22;3625;51.762;14.320;2022-07-23T20:34:17;18.60;99.90
7167;DHT22;3625;51.762;14.320;2022-07-23T20:36:46;18.60;99.90
7167;DHT22;3625;51.762;14.320;2022-07-23T20:41:46;18.50;99.90
7167;DHT22;3625;51.762;14.320;2022-07-23T20:44:14;18.40;99.90
7167;DHT22;3625;51.762;14.320;2022-07-23T20:49:12;18.40;99.90
7167;DHT22;3625;51.762;14.320;2022-07-23T20:51:44;18.40;99.90
7167;DHT22;3625;51.762;14.320;2022-07-23T20:56:42;18.30;99.90
7167;DHT22;3625;51.762;14.320;2022-07-23T20:59:12;18.30;99.90
7167;DHT22;3625;51.762;14.320;2022-07-23T21:04:11;18.20;99.90
7167;DHT22;3625;51.762;14.320;2022-07-23T21:09:08;18.30;99.90
7167;DHT22;3625;51.762;14.320;2022-07-23T21:11:37;18.30;99.90
7167;DHT22;3625;51.762;14.320;2022-07-23T21:14:06;18.30;99.90
7167;DHT22;3625;51.762;14.320;2022-07-23T21:16:36;18.20;99.90
7167;DHT22;3625;51.762;14.320;2022-07-23T21:19:05;18.10;99.90
7167;DHT22;3625;51.762;14.320;2022-07-23T21:24:04;18.10;99.90
7167;DHT22;3625;51.762;14.320;2022-07-23T21:29:02;18.00;99.90
7167;DHT22;3625;51.762;14.320;2022-07-23T21:31:35;18.00;99.90
7167;DHT22;3625;51.762;14.320;2022-07-23T21:34:04;18.00;99.90
7167;DHT22;3625;51.762;14.320;2022-07-23T21:39:03;17.80;99.90
7167;DHT22;3625;51.762;14.320;2022-07-23T21:44:03;17.70;99.90
7167;DHT22;3625;51.762;14.320;2022-07-23T21:46:32;17.60;99.90
7167;DHT22;3625;51.762;14.320;2022-07-23T21:49:05;17.50;99.90
7167;DHT22;3625;51.762;14.320;2022-07-23T21:59:05;17.30;99.90
7167;DHT22;3625;51.762;14.320;2022-07-23T22:04:05;17.30;99.90
7167;DHT22;3625;51.762;14.320;2022-07-23T22:06:34;17.20;99.90
7167;DHT22;3625;51.762;14.320;2022-07-23T22:09:03;17.20;99.90
7167;DHT22;3625;51.762;14.320;2022-07-23T22:11:32;17.10;99.90
7167;DHT22;3625;51.762;14.320;2022-07-23T22:14:01;17.10;99.90
7167;DHT22;3625;51.762;14.320;2022-07-23T22:18:59;17.10;99.90
7167;DHT22;3625;51.762;14.320;2022-07-23T22:21:30;17.10;99.90
7167;DHT22;3625;51.762;14.320;2022-07-23T22:24:11;17.10;99.90
7167;DHT22;3625;51.762;14.320;2022-07-23T22:26:40;17.10;99.90
7167;DHT22;3625;51.762;14.320;2022-07-23T22:29:09;17.10;99.90